sensor_id;sensor_type;location;lat;lon;timestamp;P1;durP1;ratioP1;P2;durP2;ratioP2
84144;SDS011;74264;48.988;12.040;2024-01-15T00:01:17;57.40;;;22.83;;
84144;SDS011;74264;48.988;12.040;2024-01-15T00:03:42;64.45;;;24.17;;
84144;SDS011;74264;48.988;12.040;2024-01-15T00:06:08;54.97;;;21.85;;
84144;SDS011;74264;48.988;12.040;2024-01-15T00:08:34;49.35;;;22.17;;
84144;SDS011;74264;48.988;12.040;2024-01-15T00:10:59;51.30;;;21.15;;
84144;SDS011;74264;48.988;12.040;2024-01-15T00:13:25;51.13;;;21.25;;
84144;SDS011;74264;48.988;12.040;2024-01-15T00:15:51;67.10;;;24.63;;
84144;SDS011;74264;48.988;12.040;2024-01-15T00:18:17;68.70;;;34.45;;
84144;SDS011;74264;48.988;12.040;2024-01-15T00:20:42;53.72;;;27.85;;
84144;SDS011;74264;48.988;12.040;2024-01-15T00:23:08;58.03;;;24.58;;
84144;SDS011;74264;48.988;12.040;2024-01-15T00:25:34;46.92;;;23.38;;
84144;SDS011;74264;48.988;12.040;2024-01-15T00:27:59;48.40;;;21.80;;
84144;SDS011;74264;48.988;12.040;2024-01-15T00:30:25;48.83;;;20.67;;
84144;SDS011;74264;48.988;12.040;2024-01-15T00:32:50;42.10;;;19.75;;
84144;SDS011;74264;48.988;12.040;2024-01-15T00:35:16;50.13;;;22.30;;
84144;SDS011;74264;48.988;12.040;2024-01-15T00:37:42;44.13;;;21.27;;
84144;SDS011;74264;48.988;12.040;2024-01-15T00:40:07;48.35;;;22.10;;
84144;SDS011;74264;48.988;12.040;2024-01-15T00:42:34;46.85;;;20.60;;
84144;SDS011;74264;48.988;12.040;2024-01-15T00:44:59;49.10;;;21.58;;
84144;SDS011;74264;48.988;12.040;2024-01-15T00:47:25;41.35;;;19.20;;
84144;SDS011;74264;48.988;12.040;2024-01-15T00:49:51;47.35;;;20.20;;
84144;SDS011;74264;48.988;12.040;2024-01-15T00:52:17;44.75;;;20.95;;
84144;SDS011;74264;48.988;12.040;2024-01-15T00:54:42;51.17;;;26.08;;
84144;SDS011;74264;48.988;12.040;2024-01-15T00:57:08;48.75;;;21.13;;
84144;SDS011;74264;48.988;12.040;2024-01-15T00:59:34;49.78;;;24.50;;
84144;SDS011;74264;48.988;12.040;2024-01-15T01:01:59;56.15;;;25.40;;
84144;SDS011;74264;48.988;12.040;2024-01-15T01:04:25;47.08;;;22.25;;
84144;SDS011;74264;48.988;12.040;2024-01-15T01:06:50;46.30;;;19.48;;
84144;SDS011;74264;48.988;12.040;2024-01-15T01:09:16;37.42;;;16.52;;
84144;SDS011;74264;48.988;12.040;2024-01-15T01:11:41;51.45;;;22.52;;
84144;SDS011;74264;48.988;12.040;2024-01-15T01:14:07;43.42;;;19.00;;
84144;SDS011;74264;48.988;12.040;2024-01-15T01:16:33;45.58;;;19.35;;
84144;SDS011;74264;48.988;12.040;2024-01-15T01:19:07;52.83;;;19.67;;
84144;SDS011;74264;48.988;12.040;2024-01-15T01:21:33;51.65;;;21.02;;
84144;SDS011;74264;48.988;12.040;2024-01-15T01:23:59;45.88;;;18.23;;
84144;SDS011;74264;48.988;12.040;2024-01-15T01:26:24;56.10;;;22.58;;
84144;SDS011;74264;48.988;12.040;2024-01-15T01:28:50;44.95;;;17.50;;
84144;SDS011;74264;48.988;12.040;2024-01-15T01:31:16;49.22;;;19.30;;
84144;SDS011;74264;48.988;12.040;2024-01-15T01:33:42;49.13;;;21.23;;
84144;SDS011;74264;48.988;12.040;2024-01-15T01:36:08;48.45;;;18.83;;
84144;SDS011;74264;48.988;12.040;2024-01-15T01:38:35;45.97;;;18.00;;
84144;SDS011;74264;48.988;12.040;2024-01-15T01:41:01;40.20;;;14.55;;
84144;SDS011;74264;48.988;12.040;2024-01-15T01:43:27;43.10;;;17.35;;
84144;SDS011;74264;48.988;12.040;2024-01-15T01:45:53;49.35;;;18.75;;
84144;SDS011;74264;48.988;12.040;2024-01-15T01:48:22;41.80;;;17.92;;
84144;SDS011;74264;48.988;12.040;2024-01-15T01:50:50;44.50;;;18.10;;
84144;SDS011;74264;48.988;12.040;2024-01-15T01:53:16;41.90;;;15.57;;
84144;SDS011;74264;48.988;12.040;2024-01-15T01:55:41;47.13;;;17.52;;
84144;SDS011;74264;48.988;12.040;2024-01-15T01:58:07;46.42;;;17.92;;
84144;SDS011;74264;48.988;12.040;2024-01-15T02:00:33;47.13;;;18.58;;
84144;SDS011;74264;48.988;12.040;2024-01-15T02:03:00;44.17;;;18.65;;
84144;SDS011;74264;48.988;12.040;2024-01-15T02:05:28;46.33;;;17.60;;
84144;SDS011;74264;48.988;12.040;2024-01-15T02:07:54;47.03;;;17.92;;
84144;SDS011;74264;48.988;12.040;2024-01-15T02:10:20;49.20;;;19.08;;
84144;SDS011;74264;48.988;12.040;2024-01-15T02:12:46;44.20;;;17.33;;
84144;SDS011;74264;48.988;12.040;2024-01-15T02:15:14;49.22;;;19.85;;
84144;SDS011;74264;48.988;12.040;2024-01-15T02:20:27;47.22;;;19.42;;
84144;SDS011;74264;48.988;12.040;2024-01-15T02:22:53;45.97;;;17.23;;
84144;SDS011;74264;48.988;12.040;2024-01-15T02:25:18;41.20;;;17.15;;
84144;SDS011;74264;48.988;12.040;2024-01-15T02:27:44;40.05;;;15.18;;
84144;SDS011;74264;48.988;12.040;2024-01-15T02:30:13;41.78;;;15.70;;
84144;SDS011;74264;48.988;12.040;2024-01-15T02:32:39;41.97;;;17.38;;
84144;SDS011;74264;48.988;12.040;2024-01-15T02:35:04;40.13;;;16.77;;
84144;SDS011;74264;48.988;12.040;2024-01-15T02:37:30;44.42;;;18.55;;
84144;SDS011;74264;48.988;12.040;2024-01-15T02:39:56;45.25;;;18.45;;
84144;SDS011;74264;48.988;12.040;2024-01-15T02:42:21;34.42;;;14.98;;
84144;SDS011;74264;48.988;12.040;2024-01-15T02:44:47;43.38;;;18.48;;
84144;SDS011;74264;48.988;12.040;2024-01-15T02:47:14;41.95;;;16.55;;
84144;SDS011;74264;48.988;12.040;2024-01-15T02:49:39;35.92;;;14.73;;
84144;SDS011;74264;48.988;12.040;2024-01-15T02:52:05;36.97;;;16.50;;
84144;SDS011;74264;48.988;12.040;2024-01-15T02:54:31;34.92;;;14.35;;
84144;SDS011;74264;48.988;12.040;2024-01-15T02:56:56;32.95;;;14.40;;
84144;SDS011;74264;48.988;12.040;2024-01-15T02:59:22;34.38;;;14.70;;
84144;SDS011;74264;48.988;12.040;2024-01-15T03:01:47;33.88;;;13.25;;
84144;SDS011;74264;48.988;12.040;2024-01-15T03:04:13;34.53;;;14.57;;
84144;SDS011;74264;48.988;12.040;2024-01-15T03:06:38;33.63;;;15.25;;
84144;SDS011;74264;48.988;12.040;2024-01-15T03:09:04;33.72;;;13.55;;
84144;SDS011;74264;48.988;12.040;2024-01-15T03:11:36;29.95;;;12.88;;
84144;SDS011;74264;48.988;12.040;2024-01-15T03:14:03;37.38;;;13.85;;
84144;SDS011;74264;48.988;12.040;2024-01-15T03:16:29;33.05;;;12.82;;
84144;SDS011;74264;48.988;12.040;2024-01-15T03:18:55;30.67;;;12.93;;
84144;SDS011;74264;48.988;12.040;2024-01-15T03:21:20;33.85;;;12.80;;
84144;SDS011;74264;48.988;12.040;2024-01-15T03:23:46;36.53;;;15.32;;
84144;SDS011;74264;48.988;12.040;2024-01-15T03:26:11;27.98;;;12.73;;
84144;SDS011;74264;48.988;12.040;2024-01-15T03:28:37;32.08;;;14.50;;
84144;SDS011;74264;48.988;12.040;2024-01-15T03:31:03;26.55;;;12.82;;
84144;SDS011;74264;48.988;12.040;2024-01-15T03:33:28;30.13;;;13.18;;
84144;SDS011;74264;48.988;12.040;2024-01-15T03:35:54;27.55;;;12.48;;
84144;SDS011;74264;48.988;12.040;2024-01-15T03:38:20;25.95;;;11.35;;
84144;SDS011;74264;48.988;12.040;2024-01-15T03:40:45;31.15;;;12.18;;
84144;SDS011;74264;48.988;12.040;2024-01-15T03:43:12;25.10;;;11.73;;
84144;SDS011;74264;48.988;12.040;2024-01-15T03:45:37;33.40;;;13.45;;
84144;SDS011;74264;48.988;12.040;2024-01-15T03:48:03;32.22;;;13.10;;
84144;SDS011;74264;48.988;12.040;2024-01-15T03:50:29;34.75;;;14.60;;
84144;SDS011;74264;48.988;12.040;2024-01-15T03:52:54;34.92;;;13.43;;
84144;SDS011;74264;48.988;12.040;2024-01-15T03:55:20;31.10;;;14.05;;
84144;SDS011;74264;48.988;12.040;2024-01-15T03:57:46;32.70;;;13.38;;
84144;SDS011;74264;48.988;12.040;2024-01-15T04:00:11;25.88;;;11.82;;
84144;SDS011;74264;48.988;12.040;2024-01-15T04:02:37;27.95;;;11.63;;
84144;SDS011;74264;48.988;12.040;2024-01-15T04:05:03;26.55;;;11.85;;
84144;SDS011;74264;48.988;12.040;2024-01-15T04:07:29;29.05;;;12.60;;
84144;SDS011;74264;48.988;12.040;2024-01-15T04:09:54;24.45;;;11.68;;
84144;SDS011;74264;48.988;12.040;2024-01-15T04:12:20;30.08;;;12.30;;
84144;SDS011;74264;48.988;12.040;2024-01-15T04:14:46;20.77;;;10.38;;
84144;SDS011;74264;48.988;12.040;2024-01-15T04:17:11;30.17;;;11.95;;
84144;SDS011;74264;48.988;12.040;2024-01-15T04:19:37;21.75;;;10.38;;
84144;SDS011;74264;48.988;12.040;2024-01-15T04:22:03;26.10;;;11.38;;
84144;SDS011;74264;48.988;12.040;2024-01-15T04:24:28;27.23;;;12.35;;
84144;SDS011;74264;48.988;12.040;2024-01-15T04:26:57;22.92;;;10.18;;
84144;SDS011;74264;48.988;12.040;2024-01-15T04:29:22;22.92;;;9.98;;
84144;SDS011;74264;48.988;12.040;2024-01-15T04:31:48;21.50;;;9.88;;
84144;SDS011;74264;48.988;12.040;2024-01-15T04:34:13;23.17;;;10.75;;
84144;SDS011;74264;48.988;12.040;2024-01-15T04:36:39;29.98;;;12.02;;
84144;SDS011;74264;48.988;12.040;2024-01-15T04:39:06;28.83;;;11.50;;
84144;SDS011;74264;48.988;12.040;2024-01-15T04:41:31;28.50;;;11.35;;
84144;SDS011;74264;48.988;12.040;2024-01-15T04:43:57;23.65;;;10.50;;
84144;SDS011;74264;48.988;12.040;2024-01-15T04:46:23;25.30;;;11.80;;
84144;SDS011;74264;48.988;12.040;2024-01-15T04:48:48;25.95;;;10.38;;
84144;SDS011;74264;48.988;12.040;2024-01-15T04:51:14;21.35;;;10.00;;
84144;SDS011;74264;48.988;12.040;2024-01-15T04:53:41;20.65;;;9.90;;
84144;SDS011;74264;48.988;12.040;2024-01-15T04:56:06;23.73;;;11.02;;
84144;SDS011;74264;48.988;12.040;2024-01-15T04:58:32;22.45;;;9.63;;
84144;SDS011;74264;48.988;12.040;2024-01-15T05:00:58;24.13;;;11.32;;
84144;SDS011;74264;48.988;12.040;2024-01-15T05:03:23;23.58;;;11.80;;
84144;SDS011;74264;48.988;12.040;2024-01-15T05:05:49;29.35;;;11.23;;
84144;SDS011;74264;48.988;12.040;2024-01-15T05:08:14;28.52;;;11.18;;
84144;SDS011;74264;48.988;12.040;2024-01-15T05:10:40;23.38;;;9.93;;
84144;SDS011;74264;48.988;12.040;2024-01-15T05:13:05;18.00;;;9.18;;
84144;SDS011;74264;48.988;12.040;2024-01-15T05:15:31;18.95;;;8.95;;
84144;SDS011;74264;48.988;12.040;2024-01-15T05:17:57;20.73;;;10.48;;
84144;SDS011;74264;48.988;12.040;2024-01-15T05:20:22;20.83;;;10.10;;
84144;SDS011;74264;48.988;12.040;2024-01-15T05:22:48;23.60;;;9.82;;
84144;SDS011;74264;48.988;12.040;2024-01-15T05:25:14;22.60;;;10.27;;
84144;SDS011;74264;48.988;12.040;2024-01-15T05:27:39;21.73;;;9.40;;
84144;SDS011;74264;48.988;12.040;2024-01-15T05:30:05;23.00;;;10.77;;
84144;SDS011;74264;48.988;12.040;2024-01-15T05:32:31;26.17;;;10.57;;
84144;SDS011;74264;48.988;12.040;2024-01-15T05:34:57;19.73;;;10.10;;
84144;SDS011;74264;48.988;12.040;2024-01-15T05:37:22;18.45;;;9.15;;
84144;SDS011;74264;48.988;12.040;2024-01-15T05:39:48;22.20;;;10.10;;
84144;SDS011;74264;48.988;12.040;2024-01-15T05:42:14;23.30;;;9.85;;
84144;SDS011;74264;48.988;12.040;2024-01-15T05:44:39;22.67;;;9.68;;
84144;SDS011;74264;48.988;12.040;2024-01-15T05:47:05;23.20;;;10.00;;
84144;SDS011;74264;48.988;12.040;2024-01-15T05:49:31;19.52;;;9.60;;
84144;SDS011;74264;48.988;12.040;2024-01-15T05:51:56;23.55;;;10.35;;
84144;SDS011;74264;48.988;12.040;2024-01-15T05:54:22;20.98;;;9.77;;
84144;SDS011;74264;48.988;12.040;2024-01-15T05:56:48;21.98;;;9.68;;
84144;SDS011;74264;48.988;12.040;2024-01-15T05:59:13;21.13;;;9.80;;
84144;SDS011;74264;48.988;12.040;2024-01-15T06:01:39;26.77;;;12.07;;
84144;SDS011;74264;48.988;12.040;2024-01-15T06:04:04;20.00;;;9.50;;
84144;SDS011;74264;48.988;12.040;2024-01-15T06:06:30;28.23;;;10.23;;
84144;SDS011;74264;48.988;12.040;2024-01-15T06:08:56;23.08;;;10.32;;
84144;SDS011;74264;48.988;12.040;2024-01-15T06:11:29;25.23;;;10.27;;
84144;SDS011;74264;48.988;12.040;2024-01-15T06:13:55;19.95;;;10.45;;
84144;SDS011;74264;48.988;12.040;2024-01-15T06:16:20;23.40;;;10.18;;
84144;SDS011;74264;48.988;12.040;2024-01-15T06:18:47;16.70;;;9.73;;
84144;SDS011;74264;48.988;12.040;2024-01-15T06:21:13;23.75;;;10.25;;
84144;SDS011;74264;48.988;12.040;2024-01-15T06:23:39;21.65;;;9.02;;
84144;SDS011;74264;48.988;12.040;2024-01-15T06:26:05;18.17;;;9.50;;
84144;SDS011;74264;48.988;12.040;2024-01-15T06:28:31;22.30;;;9.68;;
84144;SDS011;74264;48.988;12.040;2024-01-15T06:30:57;20.02;;;8.88;;
84144;SDS011;74264;48.988;12.040;2024-01-15T06:33:23;22.38;;;9.30;;
84144;SDS011;74264;48.988;12.040;2024-01-15T06:35:49;20.42;;;9.73;;
84144;SDS011;74264;48.988;12.040;2024-01-15T06:38:16;19.95;;;9.15;;
84144;SDS011;74264;48.988;12.040;2024-01-15T06:40:41;21.45;;;10.18;;
84144;SDS011;74264;48.988;12.040;2024-01-15T06:43:11;21.95;;;9.95;;
84144;SDS011;74264;48.988;12.040;2024-01-15T06:45:37;19.55;;;9.10;;
84144;SDS011;74264;48.988;12.040;2024-01-15T06:48:03;20.10;;;8.90;;
84144;SDS011;74264;48.988;12.040;2024-01-15T06:50:29;16.00;;;8.60;;
84144;SDS011;74264;48.988;12.040;2024-01-15T06:52:54;22.23;;;9.55;;
84144;SDS011;74264;48.988;12.040;2024-01-15T06:55:20;19.55;;;9.00;;
84144;SDS011;74264;48.988;12.040;2024-01-15T06:57:46;19.13;;;9.25;;
84144;SDS011;74264;48.988;12.040;2024-01-15T07:00:11;19.27;;;9.75;;
84144;SDS011;74264;48.988;12.040;2024-01-15T07:02:37;20.50;;;8.50;;
84144;SDS011;74264;48.988;12.040;2024-01-15T07:05:03;16.58;;;8.68;;
84144;SDS011;74264;48.988;12.040;2024-01-15T07:07:30;23.48;;;9.23;;
84144;SDS011;74264;48.988;12.040;2024-01-15T07:09:56;18.55;;;8.80;;
84144;SDS011;74264;48.988;12.040;2024-01-15T07:12:22;18.73;;;9.00;;
84144;SDS011;74264;48.988;12.040;2024-01-15T07:14:48;19.63;;;8.20;;
84144;SDS011;74264;48.988;12.040;2024-01-15T07:17:14;15.52;;;8.32;;
84144;SDS011;74264;48.988;12.040;2024-01-15T07:19:41;19.52;;;8.63;;
84144;SDS011;74264;48.988;12.040;2024-01-15T07:22:06;22.88;;;8.65;;
84144;SDS011;74264;48.988;12.040;2024-01-15T07:24:32;15.40;;;7.78;;
84144;SDS011;74264;48.988;12.040;2024-01-15T07:27:00;17.42;;;9.02;;
84144;SDS011;74264;48.988;12.040;2024-01-15T07:29:25;22.88;;;8.88;;
84144;SDS011;74264;48.988;12.040;2024-01-15T07:31:51;16.45;;;8.07;;
84144;SDS011;74264;48.988;12.040;2024-01-15T07:34:17;17.00;;;8.40;;
84144;SDS011;74264;48.988;12.040;2024-01-15T07:36:43;16.48;;;8.18;;
84144;SDS011;74264;48.988;12.040;2024-01-15T07:39:09;17.33;;;7.70;;
84144;SDS011;74264;48.988;12.040;2024-01-15T07:41:35;16.38;;;7.50;;
84144;SDS011;74264;48.988;12.040;2024-01-15T07:44:01;15.07;;;7.22;;
84144;SDS011;74264;48.988;12.040;2024-01-15T07:46:28;20.90;;;8.45;;
84144;SDS011;74264;48.988;12.040;2024-01-15T07:48:53;17.23;;;8.50;;
84144;SDS011;74264;48.988;12.040;2024-01-15T07:51:24;16.38;;;7.50;;
84144;SDS011;74264;48.988;12.040;2024-01-15T07:53:50;16.05;;;7.10;;
84144;SDS011;74264;48.988;12.040;2024-01-15T07:56:18;11.00;;;6.28;;
84144;SDS011;74264;48.988;12.040;2024-01-15T07:58:44;11.63;;;6.22;;
84144;SDS011;74264;48.988;12.040;2024-01-15T08:01:10;16.35;;;6.78;;
84144;SDS011;74264;48.988;12.040;2024-01-15T08:03:35;12.18;;;6.85;;
84144;SDS011;74264;48.988;12.040;2024-01-15T08:06:01;14.00;;;6.18;;
84144;SDS011;74264;48.988;12.040;2024-01-15T08:08:27;26.35;;;10.57;;
84144;SDS011;74264;48.988;12.040;2024-01-15T08:10:53;10.15;;;6.50;;
84144;SDS011;74264;48.988;12.040;2024-01-15T08:13:18;11.27;;;5.93;;
84144;SDS011;74264;48.988;12.040;2024-01-15T08:15:45;11.23;;;5.28;;
84144;SDS011;74264;48.988;12.040;2024-01-15T08:18:11;11.18;;;5.95;;
84144;SDS011;74264;48.988;12.040;2024-01-15T08:20:38;11.13;;;5.45;;
84144;SDS011;74264;48.988;12.040;2024-01-15T08:23:04;11.80;;;6.28;;
84144;SDS011;74264;48.988;12.040;2024-01-15T08:25:30;11.20;;;6.13;;
84144;SDS011;74264;48.988;12.040;2024-01-15T08:27:58;11.80;;;6.13;;
84144;SDS011;74264;48.988;12.040;2024-01-15T08:30:24;13.32;;;5.38;;
84144;SDS011;74264;48.988;12.040;2024-01-15T08:32:55;12.32;;;6.10;;
84144;SDS011;74264;48.988;12.040;2024-01-15T08:35:22;9.68;;;5.40;;
84144;SDS011;74264;48.988;12.040;2024-01-15T08:37:51;11.68;;;6.55;;
84144;SDS011;74264;48.988;12.040;2024-01-15T08:40:19;10.73;;;6.93;;
84144;SDS011;74264;48.988;12.040;2024-01-15T08:42:45;16.63;;;7.40;;
84144;SDS011;74264;48.988;12.040;2024-01-15T08:45:11;12.70;;;6.50;;
84144;SDS011;74264;48.988;12.040;2024-01-15T08:47:37;9.55;;;5.35;;
84144;SDS011;74264;48.988;12.040;2024-01-15T08:50:03;9.18;;;5.60;;
84144;SDS011;74264;48.988;12.040;2024-01-15T08:52:29;11.38;;;6.38;;
84144;SDS011;74264;48.988;12.040;2024-01-15T08:54:56;9.25;;;5.45;;
84144;SDS011;74264;48.988;12.040;2024-01-15T08:57:22;11.20;;;6.30;;
84144;SDS011;74264;48.988;12.040;2024-01-15T08:59:47;10.07;;;5.90;;
84144;SDS011;74264;48.988;12.040;2024-01-15T09:02:13;10.30;;;5.70;;
84144;SDS011;74264;48.988;12.040;2024-01-15T09:04:39;10.90;;;5.40;;
84144;SDS011;74264;48.988;12.040;2024-01-15T09:07:04;8.88;;;5.22;;
84144;SDS011;74264;48.988;12.040;2024-01-15T09:09:30;13.10;;;5.72;;
84144;SDS011;74264;48.988;12.040;2024-01-15T09:11:56;12.60;;;4.78;;
84144;SDS011;74264;48.988;12.040;2024-01-15T09:14:22;11.73;;;5.13;;
84144;SDS011;74264;48.988;12.040;2024-01-15T09:16:49;13.63;;;5.63;;
84144;SDS011;74264;48.988;12.040;2024-01-15T09:19:15;8.85;;;5.40;;
84144;SDS011;74264;48.988;12.040;2024-01-15T09:21:41;11.35;;;5.72;;
84144;SDS011;74264;48.988;12.040;2024-01-15T09:24:06;6.50;;;4.55;;
84144;SDS011;74264;48.988;12.040;2024-01-15T09:26:32;9.52;;;5.05;;
84144;SDS011;74264;48.988;12.040;2024-01-15T09:28:57;9.52;;;4.38;;
84144;SDS011;74264;48.988;12.040;2024-01-15T09:31:23;9.27;;;4.55;;
84144;SDS011;74264;48.988;12.040;2024-01-15T09:33:49;11.68;;;5.18;;
84144;SDS011;74264;48.988;12.040;2024-01-15T09:36:17;9.43;;;5.38;;
84144;SDS011;74264;48.988;12.040;2024-01-15T09:38:42;8.85;;;5.18;;
84144;SDS011;74264;48.988;12.040;2024-01-15T09:41:08;7.35;;;4.07;;
84144;SDS011;74264;48.988;12.040;2024-01-15T09:43:33;10.35;;;5.07;;
84144;SDS011;74264;48.988;12.040;2024-01-15T09:46:00;7.63;;;4.90;;
84144;SDS011;74264;48.988;12.040;2024-01-15T09:48:26;7.70;;;4.30;;
84144;SDS011;74264;48.988;12.040;2024-01-15T09:50:52;9.65;;;3.88;;
84144;SDS011;74264;48.988;12.040;2024-01-15T09:53:18;12.80;;;4.65;;
84144;SDS011;74264;48.988;12.040;2024-01-15T09:55:44;8.00;;;4.20;;
84144;SDS011;74264;48.988;12.040;2024-01-15T09:58:10;9.55;;;4.70;;
84144;SDS011;74264;48.988;12.040;2024-01-15T10:00:36;9.95;;;4.47;;
84144;SDS011;74264;48.988;12.040;2024-01-15T10:03:06;12.23;;;7.45;;
84144;SDS011;74264;48.988;12.040;2024-01-15T10:05:33;5.47;;;3.63;;
84144;SDS011;74264;48.988;12.040;2024-01-15T10:07:59;13.40;;;5.57;;
84144;SDS011;74264;48.988;12.040;2024-01-15T10:10:27;9.57;;;4.38;;
84144;SDS011;74264;48.988;12.040;2024-01-15T10:12:52;8.43;;;4.60;;
84144;SDS011;74264;48.988;12.040;2024-01-15T10:15:23;8.25;;;4.32;;
84144;SDS011;74264;48.988;12.040;2024-01-15T10:17:50;5.53;;;3.75;;
84144;SDS011;74264;48.988;12.040;2024-01-15T10:20:15;9.10;;;4.95;;
84144;SDS011;74264;48.988;12.040;2024-01-15T10:22:41;7.88;;;4.75;;
84144;SDS011;74264;48.988;12.040;2024-01-15T10:25:14;8.13;;;4.88;;
84144;SDS011;74264;48.988;12.040;2024-01-15T10:27:40;10.48;;;5.13;;
84144;SDS011;74264;48.988;12.040;2024-01-15T10:30:09;11.82;;;4.85;;
84144;SDS011;74264;48.988;12.040;2024-01-15T10:32:35;10.57;;;5.07;;
84144;SDS011;74264;48.988;12.040;2024-01-15T10:35:01;10.80;;;4.28;;
84144;SDS011;74264;48.988;12.040;2024-01-15T10:37:27;10.68;;;4.72;;
84144;SDS011;74264;48.988;12.040;2024-01-15T10:39:52;7.65;;;4.20;;
84144;SDS011;74264;48.988;12.040;2024-01-15T10:42:18;7.10;;;3.92;;
84144;SDS011;74264;48.988;12.040;2024-01-15T10:44:44;5.25;;;3.50;;
84144;SDS011;74264;48.988;12.040;2024-01-15T10:47:12;7.85;;;4.72;;
84144;SDS011;74264;48.988;12.040;2024-01-15T10:49:38;5.53;;;3.53;;
84144;SDS011;74264;48.988;12.040;2024-01-15T10:52:05;6.93;;;4.85;;
84144;SDS011;74264;48.988;12.040;2024-01-15T10:54:31;5.75;;;3.15;;
84144;SDS011;74264;48.988;12.040;2024-01-15T10:56:57;6.47;;;3.47;;
84144;SDS011;74264;48.988;12.040;2024-01-15T10:59:23;9.52;;;4.60;;
84144;SDS011;74264;48.988;12.040;2024-01-15T11:01:49;7.15;;;4.20;;
84144;SDS011;74264;48.988;12.040;2024-01-15T11:04:21;6.03;;;3.92;;
84144;SDS011;74264;48.988;12.040;2024-01-15T11:06:52;11.10;;;3.80;;
84144;SDS011;74264;48.988;12.040;2024-01-15T11:11:47;6.03;;;3.92;;
84144;SDS011;74264;48.988;12.040;2024-01-15T11:14:33;11.35;;;4.68;;
84144;SDS011;74264;48.988;12.040;2024-01-15T11:17:00;7.43;;;3.65;;
84144;SDS011;74264;48.988;12.040;2024-01-15T11:19:26;6.18;;;4.35;;
84144;SDS011;74264;48.988;12.040;2024-01-15T11:22:02;6.65;;;4.10;;
84144;SDS011;74264;48.988;12.040;2024-01-15T11:24:38;5.68;;;3.60;;
84144;SDS011;74264;48.988;12.040;2024-01-15T11:27:05;5.10;;;3.88;;
84144;SDS011;74264;48.988;12.040;2024-01-15T11:29:33;6.95;;;3.40;;
84144;SDS011;74264;48.988;12.040;2024-01-15T11:32:04;5.07;;;3.35;;
84144;SDS011;74264;48.988;12.040;2024-01-15T11:34:53;4.97;;;4.28;;
84144;SDS011;74264;48.988;12.040;2024-01-15T11:37:24;13.45;;;4.43;;
84144;SDS011;74264;48.988;12.040;2024-01-15T11:39:54;7.72;;;4.32;;
84144;SDS011;74264;48.988;12.040;2024-01-15T11:42:22;6.32;;;3.67;;
84144;SDS011;74264;48.988;12.040;2024-01-15T11:44:48;6.90;;;3.70;;
84144;SDS011;74264;48.988;12.040;2024-01-15T11:47:14;7.18;;;3.95;;
84144;SDS011;74264;48.988;12.040;2024-01-15T11:50:13;4.97;;;3.42;;
84144;SDS011;74264;48.988;12.040;2024-01-15T11:52:34;5.47;;;3.53;;
84144;SDS011;74264;48.988;12.040;2024-01-15T11:57:53;8.00;;;4.18;;
84144;SDS011;74264;48.988;12.040;2024-01-15T12:00:20;7.28;;;3.65;;
84144;SDS011;74264;48.988;12.040;2024-01-15T12:02:48;6.15;;;3.75;;
84144;SDS011;74264;48.988;12.040;2024-01-15T12:05:15;6.60;;;3.65;;
84144;SDS011;74264;48.988;12.040;2024-01-15T12:07:42;6.32;;;4.07;;
84144;SDS011;74264;48.988;12.040;2024-01-15T12:10:09;8.25;;;4.45;;
84144;SDS011;74264;48.988;12.040;2024-01-15T12:15:12;5.32;;;3.65;;
84144;SDS011;74264;48.988;12.040;2024-01-15T12:17:38;8.23;;;3.85;;
84144;SDS011;74264;48.988;12.040;2024-01-15T12:20:05;5.40;;;3.38;;
84144;SDS011;74264;48.988;12.040;2024-01-15T12:22:31;9.13;;;4.07;;
84144;SDS011;74264;48.988;12.040;2024-01-15T12:24:57;5.35;;;3.92;;
84144;SDS011;74264;48.988;12.040;2024-01-15T12:27:23;5.47;;;3.65;;
84144;SDS011;74264;48.988;12.040;2024-01-15T12:29:49;6.07;;;3.45;;
84144;SDS011;74264;48.988;12.040;2024-01-15T12:32:15;5.10;;;3.20;;
84144;SDS011;74264;48.988;12.040;2024-01-15T12:34:40;6.53;;;3.88;;
84144;SDS011;74264;48.988;12.040;2024-01-15T12:37:07;5.63;;;3.40;;
84144;SDS011;74264;48.988;12.040;2024-01-15T12:39:35;3.13;;;2.67;;
84144;SDS011;74264;48.988;12.040;2024-01-15T12:42:01;6.78;;;3.35;;
84144;SDS011;74264;48.988;12.040;2024-01-15T12:44:28;4.05;;;2.78;;
84144;SDS011;74264;48.988;12.040;2024-01-15T12:46:53;8.88;;;3.42;;
84144;SDS011;74264;48.988;12.040;2024-01-15T12:49:21;4.07;;;2.75;;
84144;SDS011;74264;48.988;12.040;2024-01-15T12:51:52;9.00;;;3.72;;
84144;SDS011;74264;48.988;12.040;2024-01-15T12:54:24;6.80;;;3.55;;
84144;SDS011;74264;48.988;12.040;2024-01-15T12:56:51;8.13;;;3.50;;
84144;SDS011;74264;48.988;12.040;2024-01-15T12:59:17;6.32;;;2.92;;
84144;SDS011;74264;48.988;12.040;2024-01-15T13:01:43;6.97;;;3.92;;
84144;SDS011;74264;48.988;12.040;2024-01-15T13:04:09;6.38;;;3.28;;
84144;SDS011;74264;48.988;12.040;2024-01-15T13:06:35;6.57;;;4.03;;
84144;SDS011;74264;48.988;12.040;2024-01-15T13:09:05;6.53;;;3.88;;
84144;SDS011;74264;48.988;12.040;2024-01-15T13:11:31;5.47;;;3.45;;
84144;SDS011;74264;48.988;12.040;2024-01-15T13:13:57;6.90;;;3.40;;
84144;SDS011;74264;48.988;12.040;2024-01-15T13:16:23;12.13;;;5.13;;
84144;SDS011;74264;48.988;12.040;2024-01-15T13:18:48;24.92;;;8.75;;
84144;SDS011;74264;48.988;12.040;2024-01-15T13:21:15;7.88;;;4.15;;
84144;SDS011;74264;48.988;12.040;2024-01-15T13:23:41;5.20;;;3.17;;
84144;SDS011;74264;48.988;12.040;2024-01-15T13:26:06;6.68;;;3.08;;
84144;SDS011;74264;48.988;12.040;2024-01-15T13:28:32;4.07;;;2.95;;
84144;SDS011;74264;48.988;12.040;2024-01-15T13:30:59;6.05;;;3.30;;
84144;SDS011;74264;48.988;12.040;2024-01-15T13:33:25;6.25;;;3.10;;
84144;SDS011;74264;48.988;12.040;2024-01-15T13:35:51;5.07;;;3.00;;
84144;SDS011;74264;48.988;12.040;2024-01-15T13:38:17;3.88;;;3.00;;
84144;SDS011;74264;48.988;12.040;2024-01-15T13:40:43;7.00;;;3.22;;
84144;SDS011;74264;48.988;12.040;2024-01-15T13:43:10;6.07;;;3.33;;
84144;SDS011;74264;48.988;12.040;2024-01-15T13:45:37;5.35;;;3.80;;
84144;SDS011;74264;48.988;12.040;2024-01-15T13:48:03;5.15;;;3.38;;
84144;SDS011;74264;48.988;12.040;2024-01-15T13:50:31;4.20;;;3.65;;
84144;SDS011;74264;48.988;12.040;2024-01-15T13:52:57;4.55;;;3.42;;
84144;SDS011;74264;48.988;12.040;2024-01-15T13:55:22;4.28;;;2.97;;
84144;SDS011;74264;48.988;12.040;2024-01-15T13:57:48;4.90;;;2.80;;
84144;SDS011;74264;48.988;12.040;2024-01-15T14:00:14;3.92;;;3.10;;
84144;SDS011;74264;48.988;12.040;2024-01-15T14:02:45;4.97;;;3.75;;
84144;SDS011;74264;48.988;12.040;2024-01-15T14:05:11;5.80;;;3.42;;
84144;SDS011;74264;48.988;12.040;2024-01-15T14:07:40;5.43;;;4.28;;
84144;SDS011;74264;48.988;12.040;2024-01-15T14:10:09;6.53;;;4.88;;
84144;SDS011;74264;48.988;12.040;2024-01-15T14:12:35;6.13;;;3.03;;
84144;SDS011;74264;48.988;12.040;2024-01-15T14:15:05;8.82;;;4.00;;
84144;SDS011;74264;48.988;12.040;2024-01-15T14:17:31;7.82;;;3.53;;
84144;SDS011;74264;48.988;12.040;2024-01-15T14:19:57;5.32;;;3.45;;
84144;SDS011;74264;48.988;12.040;2024-01-15T14:22:22;7.80;;;4.60;;
84144;SDS011;74264;48.988;12.040;2024-01-15T14:24:48;8.73;;;3.97;;
84144;SDS011;74264;48.988;12.040;2024-01-15T14:27:14;10.90;;;4.95;;